Time;durP1;ratioP1;P1;durP2;ratioP2;P2;SDS_P1;SDS_P2;PMS_P1;PMS_P2;Temp;Humidity;BMP_temperature;BMP_pressure;BME280_temperature;BME280_humidity;BME280_pressure;Samples;Min_cycle;Max_cycle;Signal;HPM_P1;HPM_P2
2023/09/23 00:00:13;;;;;;;6.43;1.20;;;11.90;99.90;;;;;;5088256;28;20032;-65
2023/09/23 00:02:39;;;;;;;7.55;1.00;;;11.90;99.90;;;;;;5086508;28;20024;-64
2023/09/23 00:05:09;;;;;;;3.58;0.80;;;11.90;99.90;;;;;;5077657;28;20039;-64
2023/09/23 00:07:35;;;;;;;2.78;0.90;;;11.80;99.90;;;;;;5087639;28;20038;-65
2023/09/23 00:10:08;;;;;;;3.13;0.98;;;11.80;99.90;;;;;;5086628;28;20094;-65
2023/09/23 00:12:37;;;;;;;3.60;1.05;;;11.80;99.90;;;;;;5088067;28;20036;-66
2023/09/23 00:15:05;;;;;;;2.65;0.90;;;11.80;99.90;;;;;;5086995;28;20062;-64
2023/09/23 00:17:31;;;;;;;1.17;0.70;;;11.70;99.90;;;;;;5088234;28;20540;-64
2023/09/23 00:19:57;;;;;;;2.78;0.70;;;11.60;99.90;;;;;;5087042;28;20116;-64
2023/09/23 00:22:23;;;;;;;3.22;0.80;;;11.60;99.90;;;;;;5087940;28;20103;-65
2023/09/23 00:24:50;;;;;;;3.50;0.82;;;11.50;99.90;;;;;;5087643;28;20027;-64
2023/09/23 00:27:17;;;;;;;2.78;0.85;;;11.50;99.90;;;;;;5091692;28;20036;-64
2023/09/23 00:29:44;;;;;;;2.20;0.68;;;11.40;99.90;;;;;;5090791;28;20032;-63
2023/09/23 00:32:12;;;;;;;1.45;0.70;;;11.50;99.90;;;;;;5091730;28;20097;-66
2023/09/23 00:34:38;;;;;;;1.55;0.60;;;11.50;99.90;;;;;;5088967;28;20047;-65
2023/09/23 00:37:04;;;;;;;3.28;0.63;;;11.50;99.90;;;;;;5091334;28;20081;-64
2023/09/23 00:39:30;;;;;;;3.17;0.82;;;11.40;99.90;;;;;;5090802;28;20753;-64
2023/09/23 00:41:55;;;;;;;2.03;1.08;;;11.40;99.90;;;;;;5090569;28;20032;-64
2023/09/23 00:44:21;;;;;;;0.90;0.70;;;11.30;99.90;;;;;;5089086;28;20036;-64
2023/09/23 00:46:46;;;;;;;3.60;0.80;;;11.30;99.90;;;;;;5090312;28;20415;-64
2023/09/23 00:49:13;;;;;;;1.85;0.75;;;11.30;99.90;;;;;;5091382;28;20059;-64
2023/09/23 00:51:40;;;;;;;1.67;0.70;;;11.30;99.90;;;;;;5090582;28;20035;-67
2023/09/23 00:54:06;;;;;;;1.48;0.73;;;11.30;99.90;;;;;;5081571;28;20047;-65
2023/09/23 00:56:33;;;;;;;2.45;0.90;;;11.30;99.90;;;;;;5090203;28;20057;-66
2023/09/23 00:58:59;;;;;;;2.72;0.80;;;11.30;99.90;;;;;;5089190;28;20037;-65
2023/09/23 01:01:26;;;;;;;5.60;1.00;;;11.40;99.90;;;;;;5089973;28;20081;-65
2023/09/23 01:03:52;;;;;;;4.30;1.35;;;11.30;99.90;;;;;;5087925;28;20066;-63
2023/09/23 01:06:21;;;;;;;1.67;0.93;;;11.40;99.90;;;;;;5089682;28;20075;-64
2023/09/23 01:08:47;;;;;;;4.43;0.95;;;11.40;99.90;;;;;;5088440;28;20092;-64
2023/09/23 01:11:14;;;;;;;3.45;0.95;;;11.30;99.90;;;;;;5084075;28;20036;-64
2023/09/23 01:13:44;;;;;;;2.53;0.80;;;11.40;99.90;;;;;;5086708;28;20068;-65
2023/09/23 01:16:13;;;;;;;2.40;0.85;;;11.30;99.90;;;;;;5088056;28;20097;-64
2023/09/23 01:18:42;;;;;;;1.77;0.70;;;11.30;99.90;;;;;;5083494;28;20044;-65
2023/09/23 01:21:08;;;;;;;2.60;0.57;;;11.30;99.90;;;;;;5087370;28;20059;-65
2023/09/23 01:23:36;;;;;;;3.22;0.77;;;11.20;99.90;;;;;;5084889;28;20055;-65
2023/09/23 01:26:02;;;;;;;3.80;0.70;;;11.20;99.90;;;;;;5089455;28;20863;-66
2023/09/23 01:28:27;;;;;;;1.35;0.60;;;11.20;99.90;;;;;;5086509;28;20031;-65
2023/09/23 01:30:54;;;;;;;1.00;0.63;;;11.20;99.90;;;;;;5086927;28;20430;-65
2023/09/23 01:33:19;;;;;;;3.40;0.80;;;11.20;99.90;;;;;;5089249;28;20021;-65
2023/09/23 01:35:48;;;;;;;1.23;0.63;;;11.20;99.90;;;;;;5086327;28;20032;-65
2023/09/23 01:38:15;;;;;;;2.00;0.60;;;11.20;99.90;;;;;;5088773;28;20032;-66
2023/09/23 01:40:41;;;;;;;0.60;0.47;;;11.10;99.90;;;;;;5083063;28;20043;-67
2023/09/23 01:43:11;;;;;;;1.08;0.70;;;11.10;99.90;;;;;;5087706;28;20028;-65
2023/09/23 01:45:37;;;;;;;0.95;0.57;;;11.00;99.90;;;;;;5085184;28;20035;-66
2023/09/23 01:48:03;;;;;;;2.97;0.70;;;11.00;99.90;;;;;;5087760;28;20248;-65
2023/09/23 01:50:29;;;;;;;2.42;0.70;;;11.10;99.90;;;;;;5088077;28;20040;-66
2023/09/23 01:53:00;;;;;;;3.00;0.63;;;11.10;99.90;;;;;;5089286;28;20479;-63
2023/09/23 01:55:26;;;;;;;1.98;0.68;;;11.10;99.90;;;;;;5090069;28;20032;-65
2023/09/23 01:57:52;;;;;;;1.20;0.70;;;11.10;99.90;;;;;;5088507;28;20059;-65
2023/09/23 02:00:18;;;;;;;2.17;0.93;;;11.10;99.90;;;;;;5089953;28;20028;-64
2023/09/23 02:02:44;;;;;;;1.40;0.70;;;11.00;99.90;;;;;;5089328;28;20056;-66
2023/09/23 02:05:10;;;;;;;3.78;0.77;;;11.10;99.90;;;;;;5089630;28;20031;-64
2023/09/23 02:07:36;;;;;;;2.25;0.77;;;11.00;99.90;;;;;;5089855;28;20484;-66
2023/09/23 02:10:02;;;;;;;2.42;0.80;;;11.00;99.90;;;;;;5088201;28;20243;-64
2023/09/23 02:12:28;;;;;;;1.25;0.60;;;10.90;99.90;;;;;;5089618;28;20448;-63
2023/09/23 02:14:53;;;;;;;1.85;0.63;;;10.90;99.90;;;;;;5088444;28;20131;-65
2023/09/23 02:17:20;;;;;;;1.35;0.80;;;10.90;99.90;;;;;;5087940;28;20117;-64
2023/09/23 02:19:47;;;;;;;1.70;0.75;;;10.90;99.90;;;;;;5088596;28;20066;-64
2023/09/23 02:22:13;;;;;;;5.32;1.02;;;10.80;99.90;;;;;;5088689;28;20031;-65
2023/09/23 02:24:40;;;;;;;3.95;1.00;;;10.80;99.90;;;;;;5089448;28;20376;-65
2023/09/23 02:27:06;;;;;;;3.75;1.20;;;10.80;99.90;;;;;;5087935;28;20111;-65
2023/09/23 02:29:33;;;;;;;1.88;1.23;;;10.70;99.90;;;;;;5089520;28;20533;-66
2023/09/23 02:32:00;;;;;;;1.58;1.00;;;10.80;99.90;;;;;;5088637;28;20047;-66
2023/09/23 02:34:26;;;;;;;4.35;1.00;;;10.80;99.90;;;;;;5089220;28;20054;-66
2023/09/23 02:36:52;;;;;;;2.25;0.98;;;10.80;99.90;;;;;;5087841;28;20384;-65
2023/09/23 02:39:21;;;;;;;3.42;1.40;;;10.80;99.90;;;;;;5089202;28;20029;-66
2023/09/23 02:41:48;;;;;;;3.95;1.25;;;10.80;99.90;;;;;;5088321;28;20031;-66
2023/09/23 02:44:18;;;;;;;4.50;1.30;;;10.80;99.90;;;;;;5087545;28;20321;-66
2023/09/23 02:46:48;;;;;;;2.47;1.55;;;10.90;99.90;;;;;;5088548;28;20115;-67
2023/09/23 02:49:14;;;;;;;3.58;1.20;;;10.90;99.90;;;;;;5088917;28;20088;-66
2023/09/23 02:51:44;;;;;;;4.65;1.50;;;10.90;99.90;;;;;;5088738;28;20055;-65
2023/09/23 02:54:13;;;;;;;3.10;1.50;;;10.90;99.90;;;;;;5088124;28;20586;-65
2023/09/23 02:56:39;;;;;;;2.67;1.30;;;10.90;99.90;;;;;;5088162;28;20433;-64
2023/09/23 02:59:13;;;;;;;1.85;1.20;;;11.00;99.90;;;;;;5087870;28;20027;-64
2023/09/23 03:01:45;;;;;;;2.58;1.42;;;11.10;99.90;;;;;;5088630;28;20028;-64
2023/09/23 03:04:33;;;;;;;2.17;1.20;;;11.10;99.90;;;;;;5088428;28;20040;-66
2023/09/23 03:07:01;;;;;;;1.98;1.10;;;11.10;99.90;;;;;;5066643;28;20037;-66
2023/09/23 03:09:32;;;;;;;2.45;1.40;;;11.10;99.90;;;;;;5068311;28;20107;-66
2023/09/23 03:11:59;;;;;;;2.35;1.23;;;11.10;99.90;;;;;;5067536;28;20032;-66
2023/09/23 03:14:35;;;;;;;2.53;1.40;;;11.10;99.90;;;;;;5068963;28;20036;-64
2023/09/23 03:17:01;;;;;;;1.70;1.17;;;11.10;99.90;;;;;;5087587;28;20060;-66
2023/09/23 03:19:27;;;;;;;4.20;1.90;;;11.00;99.90;;;;;;5069955;28;20484;-66
2023/09/23 03:21:57;;;;;;;3.42;1.40;;;11.00;99.90;;;;;;5086838;28;20074;-65
2023/09/23 03:24:28;;;;;;;2.13;1.00;;;11.00;99.90;;;;;;5087501;28;20020;-66
2023/09/23 03:26:56;;;;;;;2.15;1.20;;;10.90;99.90;;;;;;5087324;28;20039;-65
2023/09/23 03:29:22;;;;;;;2.25;1.23;;;10.90;99.90;;;;;;5088097;28;20032;-64
2023/09/23 03:31:49;;;;;;;2.22;1.30;;;10.90;99.90;;;;;;5087514;28;20457;-66
2023/09/23 03:34:16;;;;;;;2.67;1.55;;;10.90;99.90;;;;;;5088386;28;20032;-65
2023/09/23 03:36:42;;;;;;;2.42;1.40;;;10.90;99.90;;;;;;5087091;28;20366;-66
2023/09/23 03:39:08;;;;;;;4.60;1.20;;;10.80;99.90;;;;;;5087595;28;20081;-65
2023/09/23 03:41:37;;;;;;;1.83;1.02;;;10.80;99.90;;;;;;5087719;28;20099;-65
2023/09/23 03:44:07;;;;;;;3.25;1.20;;;10.70;99.90;;;;;;5087082;28;20035;-65
2023/09/23 03:46:33;;;;;;;3.13;1.00;;;10.60;99.90;;;;;;5088173;28;20392;-65
2023/09/23 03:49:00;;;;;;;3.85;1.20;;;10.50;99.90;;;;;;5087316;28;20135;-65
2023/09/23 03:51:26;;;;;;;2.83;1.20;;;10.40;99.90;;;;;;5086884;28;20068;-65
2023/09/23 03:53:51;;;;;;;3.15;1.30;;;10.40;99.90;;;;;;5087073;28;20064;-65
2023/09/23 03:56:20;;;;;;;3.40;1.20;;;10.30;99.90;;;;;;5088169;28;20064;-65
2023/09/23 03:58:45;;;;;;;3.25;1.25;;;10.30;99.90;;;;;;5090002;28;20024;-65
2023/09/23 04:01:13;;;;;;;2.35;1.20;;;10.20;99.90;;;;;;5091281;28;20456;-65
2023/09/23 04:03:42;;;;;;;2.75;1.58;;;10.20;99.90;;;;;;5092262;28;20107;-65
2023/09/23 04:06:08;;;;;;;5.15;1.35;;;10.10;99.90;;;;;;5090561;28;20670;-65
2023/09/23 04:08:34;;;;;;;2.97;1.30;;;10.10;99.90;;;;;;5073852;28;20040;-65
2023/09/23 04:11:07;;;;;;;5.35;1.30;;;10.10;99.90;;;;;;5091244;28;20090;-65
2023/09/23 04:13:33;;;;;;;3.22;1.40;;;10.10;99.90;;;;;;5091889;28;20488;-64
2023/09/23 04:16:03;;;;;;;2.55;1.30;;;10.10;99.90;;;;;;5090841;28;20036;-65
2023/09/23 04:18:30;;;;;;;6.28;1.38;;;10.10;99.90;;;;;;5088856;28;20032;-65
2023/09/23 04:20:56;;;;;;;4.15;1.30;;;10.10;99.90;;;;;;5088813;28;20040;-65
2023/09/23 04:23:22;;;;;;;5.68;2.30;;;10.20;99.90;;;;;;5088520;28;20054;-65
2023/09/23 04:25:49;;;;;;;2.55;1.42;;;10.20;99.90;;;;;;5088588;28;20028;-65
2023/09/23 04:28:19;;;;;;;2.08;1.23;;;10.20;99.90;;;;;;5078783;28;20043;-65
2023/09/23 04:30:45;;;;;;;4.32;1.40;;;10.30;99.90;;;;;;5077603;28;20059;-65
2023/09/23 04:33:12;;;;;;;2.90;1.40;;;10.30;99.90;;;;;;5083866;28;20634;-64
2023/09/23 04:35:38;;;;;;;3.33;1.42;;;10.30;99.90;;;;;;5084615;28;20040;-65
2023/09/23 04:38:04;;;;;;;3.83;1.48;;;10.30;99.90;;;;;;5086803;28;20036;-64
2023/09/23 04:40:30;;;;;;;5.35;1.55;;;10.30;99.90;;;;;;5090830;28;20028;-64
2023/09/23 04:42:55;;;;;;;3.00;1.20;;;10.30;99.90;;;;;;5081104;28;20035;-65
2023/09/23 04:45:21;;;;;;;2.05;1.20;;;10.20;99.90;;;;;;5086363;28;20028;-65
2023/09/23 04:47:50;;;;;;;2.92;1.40;;;10.10;99.90;;;;;;5086330;28;20122;-64
2023/09/23 04:50:23;;;;;;;2.00;1.25;;;10.00;99.90;;;;;;5081756;28;20147;-63
2023/09/23 04:52:50;;;;;;;2.88;1.40;;;9.90;99.90;;;;;;5083024;28;20032;-64
2023/09/23 04:55:16;;;;;;;5.95;1.60;;;9.80;99.90;;;;;;5069895;28;20060;-66
2023/09/23 04:57:42;;;;;;;5.97;1.40;;;9.70;99.90;;;;;;5083235;28;20020;-64
2023/09/23 05:00:09;;;;;;;5.40;1.58;;;9.70;99.90;;;;;;5086254;28;20032;-65
2023/09/23 05:02:36;;;;;;;5.35;1.60;;;9.60;99.90;;;;;;5104184;28;20023;-63
2023/09/23 05:05:03;;;;;;;2.88;1.63;;;9.60;99.90;;;;;;5095670;28;20090;-65
2023/09/23 05:07:28;;;;;;;4.35;1.20;;;9.60;99.90;;;;;;5090058;28;20487;-65
2023/09/23 05:09:57;;;;;;;6.07;1.70;;;9.60;99.90;;;;;;5089589;28;20028;-66
2023/09/23 05:12:27;;;;;;;2.80;1.45;;;9.60;99.90;;;;;;5084897;28;20470;-65
2023/09/23 05:14:53;;;;;;;5.47;1.40;;;9.60;99.90;;;;;;5072239;28;20036;-64
2023/09/23 05:17:18;;;;;;;4.63;1.60;;;9.70;99.90;;;;;;5085786;28;20029;-65
2023/09/23 05:19:47;;;;;;;3.80;1.60;;;9.60;99.90;;;;;;5093047;28;20368;-65
2023/09/23 05:22:13;;;;;;;6.57;2.00;;;9.70;99.90;;;;;;5091752;28;20063;-65
2023/09/23 05:24:39;;;;;;;4.78;1.73;;;9.60;99.90;;;;;;5087477;28;20028;-64
2023/09/23 05:27:05;;;;;;;3.67;1.50;;;9.70;99.90;;;;;;5087070;28;20084;-64
2023/09/23 05:29:31;;;;;;;5.57;1.73;;;9.60;99.90;;;;;;5090478;28;20060;-64
2023/09/23 05:31:57;;;;;;;3.00;1.58;;;9.60;99.90;;;;;;5088684;28;20071;-65
2023/09/23 05:34:23;;;;;;;3.33;1.90;;;9.60;99.90;;;;;;5074123;28;20040;-65
2023/09/23 05:36:48;;;;;;;4.95;1.77;;;9.70;99.90;;;;;;5085808;28;20078;-64
2023/09/23 05:39:19;;;;;;;5.30;2.10;;;9.70;99.90;;;;;;5069338;28;20024;-64
2023/09/23 05:41:48;;;;;;;;;;;9.80;99.90;;;;;;5087388;28;20547;-64
2023/09/23 05:44:16;;;;;;;6.70;2.72;;;9.80;99.90;;;;;;5082942;28;19911;-64
2023/09/23 05:46:42;;;;;;;9.93;3.90;;;9.80;99.90;;;;;;5090137;28;20115;-64
2023/09/23 05:49:14;;;;;;;8.77;3.90;;;9.80;99.90;;;;;;5088038;28;20481;-65
2023/09/23 05:51:40;;;;;;;6.47;3.00;;;9.80;99.90;;;;;;5087952;28;20404;-64
2023/09/23 05:54:08;;;;;;;6.93;3.10;;;9.90;99.90;;;;;;5069308;28;20037;-64
2023/09/23 05:56:33;;;;;;;5.40;2.42;;;9.90;99.90;;;;;;5082042;28;20082;-64
2023/09/23 05:58:59;;;;;;;15.75;2.70;;;9.90;99.90;;;;;;5070981;28;20037;-65
2023/09/23 06:01:25;;;;;;;11.43;2.10;;;9.90;99.90;;;;;;5070428;28;20032;-64
2023/09/23 06:03:50;;;;;;;7.53;2.00;;;9.90;99.90;;;;;;5086290;28;20110;-65
2023/09/23 06:06:16;;;;;;;10.98;2.30;;;9.90;99.90;;;;;;5087412;28;20660;-65
2023/09/23 06:08:42;;;;;;;7.18;2.47;;;9.90;99.90;;;;;;5087228;28;20054;-65
2023/09/23 06:11:10;;;;;;;5.63;2.17;;;9.90;99.90;;;;;;5097289;28;20038;-65
2023/09/23 06:13:36;;;;;;;6.20;2.30;;;10.00;99.90;;;;;;5085907;28;20042;-65
2023/09/23 06:16:03;;;;;;;5.65;2.47;;;10.00;99.90;;;;;;5088046;28;20035;-65
2023/09/23 06:18:28;;;;;;;5.05;2.15;;;10.10;99.90;;;;;;5088413;28;20034;-65
2023/09/23 06:21:02;;;;;;;2.63;1.77;;;10.20;99.90;;;;;;5088629;28;20477;-66
2023/09/23 06:23:28;;;;;;;5.07;2.05;;;10.30;99.90;;;;;;5079622;28;20038;-64
2023/09/23 06:25:54;;;;;;;3.97;1.67;;;10.40;99.90;;;;;;5085794;28;20039;-65
2023/09/23 06:28:24;;;;;;;4.15;1.95;;;10.50;99.90;;;;;;5085511;28;20132;-65
2023/09/23 06:30:50;;;;;;;4.00;1.70;;;10.50;99.90;;;;;;5089217;28;20299;-65
2023/09/23 06:33:16;;;;;;;3.55;1.70;;;10.50;99.90;;;;;;5082260;28;20610;-65
2023/09/23 06:35:42;;;;;;;6.07;1.80;;;10.50;99.90;;;;;;5088817;28;20046;-65
2023/09/23 06:38:08;;;;;;;2.83;1.50;;;10.50;99.90;;;;;;5077382;28;20491;-64
2023/09/23 06:40:33;;;;;;;2.42;1.25;;;10.50;99.90;;;;;;5068994;28;20075;-65
2023/09/23 06:42:59;;;;;;;3.17;1.40;;;10.50;99.90;;;;;;5070849;28;20063;-66
2023/09/23 06:45:25;;;;;;;3.45;1.27;;;10.60;99.90;;;;;;5087945;28;20594;-65
2023/09/23 06:47:50;;;;;;;4.50;1.30;;;10.60;99.90;;;;;;5087802;28;20048;-65
2023/09/23 06:50:17;;;;;;;3.83;1.25;;;10.60;99.90;;;;;;5086899;28;20036;-65
2023/09/23 06:52:43;;;;;;;2.03;1.27;;;10.80;99.90;;;;;;5087527;28;20396;-66
2023/09/23 06:55:09;;;;;;;2.50;1.67;;;10.70;99.90;;;;;;5088063;28;20032;-65
2023/09/23 06:57:35;;;;;;;5.80;1.63;;;10.90;99.90;;;;;;5087614;28;20123;-65
2023/09/23 07:00:07;;;;;;;4.63;1.80;;;10.90;99.90;;;;;;5085127;28;20047;-65
2023/09/23 07:02:36;;;;;;;2.88;1.30;;;11.00;99.90;;;;;;5078861;28;20024;-64
2023/09/23 07:05:02;;;;;;;3.55;1.30;;;11.10;99.90;;;;;;5086052;28;20472;-64
2023/09/23 07:07:28;;;;;;;5.10;1.30;;;11.20;99.90;;;;;;5086230;28;20023;-64
2023/09/23 07:09:54;;;;;;;6.20;1.95;;;11.30;99.90;;;;;;5088378;28;20492;-63
2023/09/23 07:12:20;;;;;;;3.03;1.38;;;11.50;99.90;;;;;;5082942;28;20048;-64
2023/09/23 07:14:45;;;;;;;6.85;1.33;;;11.60;99.90;;;;;;5080551;28;20468;-64
2023/09/23 07:17:11;;;;;;;1.75;1.15;;;11.70;99.90;;;;;;5082489;28;20066;-64
2023/09/23 07:19:37;;;;;;;2.55;1.33;;;11.60;99.90;;;;;;5082781;28;20024;-63
2023/09/23 07:22:03;;;;;;;14.75;1.23;;;11.70;99.90;;;;;;5086236;28;20032;-65
2023/09/23 07:24:29;;;;;;;5.55;1.10;;;11.70;99.90;;;;;;5087948;28;20035;-64
2023/09/23 07:26:58;;;;;;;2.17;1.10;;;11.80;99.90;;;;;;5086965;28;20036;-70
2023/09/23 07:29:25;;;;;;;4.82;1.25;;;12.00;99.90;;;;;;5086710;28;20070;-64
2023/09/23 07:31:52;;;;;;;1.38;0.90;;;12.00;99.90;;;;;;5087354;28;20032;-64
2023/09/23 07:34:18;;;;;;;2.95;1.60;;;12.10;99.90;;;;;;5085239;28;20062;-63
2023/09/23 07:36:44;;;;;;;4.47;1.30;;;12.10;99.90;;;;;;5086583;28;20032;-63
2023/09/23 07:39:10;;;;;;;3.60;1.05;;;12.30;99.90;;;;;;5081698;28;20028;-63
2023/09/23 07:41:36;;;;;;;6.95;1.20;;;12.40;99.90;;;;;;5067889;28;20036;-64
2023/09/23 07:44:03;;;;;;;2.15;1.00;;;12.40;99.90;;;;;;5067054;28;20032;-63
2023/09/23 07:46:29;;;;;;;2.47;1.10;;;12.50;99.90;;;;;;5067695;28;20037;-65
2023/09/23 07:48:54;;;;;;;2.58;1.27;;;12.60;99.90;;;;;;5068083;28;20056;-65
2023/09/23 07:51:20;;;;;;;3.08;1.10;;;12.70;99.90;;;;;;5076165;28;20088;-65
2023/09/23 07:53:45;;;;;;;2.20;1.00;;;12.80;99.90;;;;;;5084477;28;20066;-63
2023/09/23 07:56:11;;;;;;;3.00;0.90;;;12.80;99.90;;;;;;5087380;28;20028;-65
2023/09/23 07:58:37;;;;;;;4.55;1.05;;;12.90;99.90;;;;;;5072082;28;20568;-64
2023/09/23 08:01:03;;;;;;;2.75;1.17;;;12.90;99.90;;;;;;5067303;28;20086;-66
2023/09/23 08:03:29;;;;;;;6.28;1.00;;;13.00;99.90;;;;;;5078293;28;20338;-63
2023/09/23 08:05:55;;;;;;;2.75;1.40;;;13.00;99.90;;;;;;5085730;28;20028;-66
2023/09/23 08:08:21;;;;;;;5.13;1.27;;;13.10;99.90;;;;;;5063190;28;20044;-63
2023/09/23 08:10:49;;;;;;;1.85;0.98;;;13.30;99.90;;;;;;5073743;28;20044;-63
2023/09/23 08:13:20;;;;;;;1.95;1.05;;;13.40;99.90;;;;;;5067060;28;20556;-64
2023/09/23 08:15:46;;;;;;;;;;;13.40;99.90;;;;;;5068015;28;20086;-63
2023/09/23 08:18:12;;;;;;;3.10;1.00;;;13.40;99.90;;;;;;5071725;28;19913;-64
2023/09/23 08:20:39;;;;;;;2.05;0.90;;;13.40;99.90;;;;;;5087441;28;20023;-64
2023/09/23 08:23:06;;;;;;;3.20;0.90;;;13.30;99.90;;;;;;5086062;28;20060;-65
2023/09/23 08:25:32;;;;;;;5.82;1.30;;;13.40;99.90;;;;;;5087554;28;20153;-64
2023/09/23 08:27:58;;;;;;;2.70;1.02;;;13.40;99.90;;;;;;5088137;28;20024;-64
2023/09/23 08:30:23;;;;;;;3.45;0.93;;;13.40;99.90;;;;;;5086619;28;20073;-63
2023/09/23 08:32:49;;;;;;;4.15;1.00;;;13.60;99.90;;;;;;5086691;28;20028;-63
2023/09/23 08:35:15;;;;;;;3.97;1.20;;;13.70;99.90;;;;;;5085549;28;20036;-65
2023/09/23 08:37:41;;;;;;;2.30;1.00;;;13.90;99.90;;;;;;5087733;28;20044;-63
2023/09/23 08:40:10;;;;;;;4.93;0.98;;;13.90;99.90;;;;;;5087122;28;20436;-63
2023/09/23 08:42:38;;;;;;;3.43;1.47;;;13.90;99.90;;;;;;5087841;28;20059;-64
2023/09/23 08:45:06;;;;;;;2.25;1.00;;;14.00;99.90;;;;;;5089293;28;20056;-65
2023/09/23 08:47:34;;;;;;;3.13;1.10;;;14.10;99.90;;;;;;5072808;28;20052;-63
2023/09/23 08:49:59;;;;;;;2.30;0.80;;;14.30;99.90;;;;;;5089678;28;20111;-63
2023/09/23 08:52:26;;;;;;;4.90;0.90;;;14.30;99.90;;;;;;5090012;28;20136;-64
2023/09/23 08:54:52;;;;;;;4.90;0.93;;;14.30;99.90;;;;;;5091077;28;20380;-64
2023/09/23 08:57:17;;;;;;;3.60;1.02;;;14.00;99.90;;;;;;5090019;28;20028;-64
2023/09/23 08:59:43;;;;;;;8.88;0.95;;;13.80;99.90;;;;;;5091038;28;20396;-65
2023/09/23 09:02:12;;;;;;;2.28;0.80;;;13.90;99.90;;;;;;5090079;28;20028;-64
2023/09/23 09:04:38;;;;;;;3.10;0.77;;;13.90;99.90;;;;;;5090707;28;20110;-64
2023/09/23 09:07:05;;;;;;;2.72;0.80;;;14.00;99.90;;;;;;5090548;28;20095;-65
2023/09/23 09:09:31;;;;;;;2.80;0.90;;;14.20;99.90;;;;;;5090612;28;20063;-64
2023/09/23 09:11:58;;;;;;;3.08;0.88;;;14.70;99.90;;;;;;5091045;28;20498;-64
2023/09/23 09:14:25;;;;;;;4.95;0.98;;;15.00;99.90;;;;;;5089942;28;20567;-65
2023/09/23 09:16:51;;;;;;;4.85;0.80;;;15.00;99.90;;;;;;5090625;28;20040;-64
2023/09/23 09:19:18;;;;;;;4.22;0.80;;;15.30;99.90;;;;;;5089048;28;20055;-64
2023/09/23 09:21:44;;;;;;;4.05;0.82;;;15.30;99.90;;;;;;5089898;28;20330;-63
2023/09/23 09:24:10;;;;;;;2.22;0.70;;;15.30;99.90;;;;;;5089815;28;20036;-63
2023/09/23 09:26:35;;;;;;;2.47;0.70;;;15.20;99.90;;;;;;5090639;28;20063;-64
2023/09/23 09:29:02;;;;;;;2.95;0.65;;;15.00;99.90;;;;;;5089315;28;20115;-65
2023/09/23 09:31:34;;;;;;;1.73;0.75;;;15.10;99.90;;;;;;5089726;28;20024;-63
2023/09/23 09:34:11;;;;;;;2.40;0.77;;;15.40;99.90;;;;;;5089755;28;20043;-64
2023/09/23 09:36:40;;;;;;;3.45;0.88;;;15.40;99.90;;;;;;5090373;28;20189;-65
2023/09/23 09:39:10;;;;;;;1.95;0.80;;;15.50;99.90;;;;;;5090033;28;20103;-65
2023/09/23 09:41:46;;;;;;;1.98;0.52;;;15.40;99.90;;;;;;5088741;28;20089;-64
2023/09/23 09:44:16;;;;;;;2.58;0.63;;;15.50;99.90;;;;;;5069302;28;20081;-64
2023/09/23 09:46:43;;;;;;;2.38;0.85;;;15.30;99.90;;;;;;5069968;28;20040;-64
2023/09/23 09:49:09;;;;;;;2.50;0.80;;;15.40;99.90;;;;;;5069047;28;20044;-65
2023/09/23 09:51:35;;;;;;;3.50;1.35;;;15.70;99.90;;;;;;5081118;28;20108;-64
2023/09/23 09:54:04;;;;;;;2.83;0.93;;;15.60;99.90;;;;;;5089847;28;20040;-64
2023/09/23 09:56:31;;;;;;;3.17;0.60;;;15.50;99.90;;;;;;5087169;28;20500;-63
2023/09/23 09:58:59;;;;;;;3.35;0.73;;;15.70;99.90;;;;;;5089995;28;20032;-63
2023/09/23 10:01:25;;;;;;;2.10;0.80;;;15.50;99.90;;;;;;5089278;28;20016;-64
2023/09/23 10:03:53;;;;;;;2.70;0.77;;;15.80;99.90;;;;;;5089841;28;20361;-65
2023/09/23 10:06:20;;;;;;;2.58;0.77;;;15.80;99.90;;;;;;5088936;28;20028;-64
2023/09/23 10:08:48;;;;;;;4.75;0.80;;;15.90;99.90;;;;;;5089817;28;20024;-65
2023/09/23 10:11:14;;;;;;;2.60;0.93;;;15.80;99.90;;;;;;5088075;28;20085;-64
2023/09/23 10:13:42;;;;;;;1.92;0.80;;;16.20;99.90;;;;;;5089277;28;20031;-66
2023/09/23 10:16:19;;;;;;;3.10;0.70;;;16.30;99.90;;;;;;5086728;28;20503;-65
2023/09/23 10:18:56;;;;;;;2.05;0.80;;;16.50;99.90;;;;;;5089724;28;20028;-64
2023/09/23 10:21:30;;;;;;;2.70;0.80;;;16.60;99.90;;;;;;5088648;28;20039;-64
2023/09/23 10:23:56;;;;;;;4.78;0.98;;;16.20;99.90;;;;;;5089641;28;20028;-64
2023/09/23 10:26:23;;;;;;;1.67;0.63;;;16.10;99.90;;;;;;5087649;28;20370;-64
2023/09/23 10:28:57;;;;;;;5.72;1.02;;;16.40;99.90;;;;;;5086518;28;20028;-64
2023/09/23 10:31:26;;;;;;;5.30;0.90;;;16.90;99.90;;;;;;5084597;28;20035;-63
2023/09/23 10:33:52;;;;;;;3.40;0.80;;;17.10;99.90;;;;;;5088215;28;20024;-64
2023/09/23 10:36:21;;;;;;;4.72;0.70;;;16.80;99.90;;;;;;5087022;28;20034;-64
2023/09/23 10:38:47;;;;;;;2.03;0.90;;;16.70;99.90;;;;;;5089129;28;20036;-63
2023/09/23 10:41:13;;;;;;;8.32;0.70;;;16.80;99.90;;;;;;5087957;28;20166;-63
2023/09/23 10:43:38;;;;;;;1.67;0.88;;;16.90;99.90;;;;;;5087240;28;20032;-63
2023/09/23 10:46:05;;;;;;;2.83;0.80;;;16.80;99.90;;;;;;5073218;28;20361;-64
2023/09/23 10:48:31;;;;;;;2.28;0.98;;;16.70;99.90;;;;;;5087766;28;20052;-64
2023/09/23 10:51:01;;;;;;;2.05;0.75;;;16.60;99.90;;;;;;5085547;28;20038;-64
2023/09/23 10:53:30;;;;;;;3.88;0.80;;;16.70;99.90;;;;;;5078071;28;20028;-63
2023/09/23 10:55:57;;;;;;;1.90;0.80;;;16.60;99.90;;;;;;5087076;28;20040;-63
2023/09/23 10:58:25;;;;;;;4.10;0.80;;;16.50;99.90;;;;;;5085537;28;20111;-65
2023/09/23 11:00:52;;;;;;;6.03;1.20;;;16.30;99.90;;;;;;5088441;28;20043;-65
2023/09/23 11:03:19;;;;;;;3.92;0.80;;;16.50;99.90;;;;;;5086145;28;20043;-64
2023/09/23 11:05:47;;;;;;;3.90;0.77;;;16.90;99.90;;;;;;5086814;28;20134;-64
2023/09/23 11:08:14;;;;;;;3.47;0.80;;;16.70;99.90;;;;;;5087984;28;20020;-66
2023/09/23 11:10:41;;;;;;;3.28;0.82;;;16.80;99.90;;;;;;5085099;28;20028;-64
2023/09/23 11:13:11;;;;;;;2.53;0.70;;;16.70;99.90;;;;;;5088023;28;20119;-64
2023/09/23 11:15:38;;;;;;;5.18;0.93;;;16.70;99.90;;;;;;5066434;28;20040;-64
2023/09/23 11:18:07;;;;;;;2.40;0.82;;;16.70;99.90;;;;;;5103982;28;20107;-64
2023/09/23 11:20:34;;;;;;;3.33;1.00;;;16.70;99.90;;;;;;5090139;28;20027;-63
2023/09/23 11:23:03;;;;;;;2.33;0.70;;;16.90;99.90;;;;;;5087541;28;20244;-64
2023/09/23 11:25:30;;;;;;;3.70;0.90;;;17.00;99.90;;;;;;5085343;28;20081;-64
2023/09/23 11:28:02;;;;;;;4.07;0.80;;;16.80;99.90;;;;;;5088055;28;20020;-64
2023/09/23 11:30:28;;;;;;;5.75;1.70;;;16.80;99.90;;;;;;5085597;28;20132;-64
2023/09/23 11:32:54;;;;;;;1.60;0.52;;;16.80;99.90;;;;;;5086395;28;20035;-64
2023/09/23 11:35:21;;;;;;;5.75;0.77;;;16.40;99.90;;;;;;5086682;28;20040;-64
2023/09/23 11:37:48;;;;;;;6.47;1.00;;;16.00;99.90;;;;;;5088255;28;20028;-64
2023/09/23 11:40:16;;;;;;;3.17;0.88;;;15.80;99.90;;;;;;5084689;28;20372;-65
2023/09/23 11:42:42;;;;;;;2.72;0.80;;;15.80;99.90;;;;;;5087589;28;20028;-64
2023/09/23 11:45:09;;;;;;;5.05;0.90;;;16.10;99.90;;;;;;5087164;28;20024;-64
2023/09/23 11:47:35;;;;;;;5.25;0.70;;;16.10;99.90;;;;;;5086128;28;20086;-65
2023/09/23 11:50:03;;;;;;;1.38;0.63;;;15.80;99.90;;;;;;5087770;28;20039;-66
2023/09/23 11:52:31;;;;;;;4.70;1.02;;;15.80;99.90;;;;;;5084522;28;20042;-64
2023/09/23 11:54:56;;;;;;;3.30;0.73;;;15.70;99.90;;;;;;5087566;28;20085;-64
2023/09/23 11:57:22;;;;;;;3.88;0.60;;;15.80;99.90;;;;;;5085502;28;20036;-64
2023/09/23 11:59:47;;;;;;;2.47;0.80;;;15.80;99.90;;;;;;5087146;28;20032;-63
2023/09/23 12:02:13;;;;;;;3.90;0.85;;;15.80;99.90;;;;;;5085591;28;20423;-64
2023/09/23 12:04:40;;;;;;;8.55;0.80;;;16.30;99.90;;;;;;5086235;28;20039;-63
2023/09/23 12:07:06;;;;;;;7.72;1.25;;;16.90;99.90;;;;;;5070371;28;20388;-63
2023/09/23 12:09:35;;;;;;;2.22;0.68;;;17.30;99.90;;;;;;5066525;28;20032;-63
2023/09/23 12:12:01;;;;;;;7.32;0.80;;;17.40;99.90;;;;;;5081707;28;20071;-62
2023/09/23 12:14:27;;;;;;;3.25;0.70;;;17.20;99.90;;;;;;5087195;28;20040;-63
2023/09/23 12:16:53;;;;;;;3.38;0.63;;;16.60;99.90;;;;;;5085723;28;20461;-63
2023/09/23 12:19:18;;;;;;;3.22;0.80;;;16.10;99.90;;;;;;5084305;28;20388;-63
2023/09/23 12:21:44;;;;;;;1.75;0.65;;;15.90;99.90;;;;;;5089047;28;20066;-63
2023/09/23 12:24:10;;;;;;;2.40;0.90;;;15.80;99.90;;;;;;5089692;28;20036;-64
2023/09/23 12:26:36;;;;;;;6.60;0.95;;;15.80;99.90;;;;;;5088631;28;20591;-64
2023/09/23 12:29:02;;;;;;;16.30;0.85;;;15.90;99.90;;;;;;5091561;28;20114;-64
2023/09/23 12:31:28;;;;;;;4.68;0.70;;;16.60;99.90;;;;;;5078515;28;20130;-64
2023/09/23 12:33:54;;;;;;;9.93;1.05;;;17.20;99.90;;;;;;5080871;28;20376;-64
2023/09/23 12:36:20;;;;;;;3.78;0.88;;;17.80;99.90;;;;;;5079135;28;20047;-64
2023/09/23 12:38:46;;;;;;;2.53;0.73;;;18.10;99.90;;;;;;5084989;28;20035;-64
2023/09/23 12:41:14;;;;;;;3.97;0.77;;;18.10;99.90;;;;;;5083580;28;20033;-64
2023/09/23 12:43:40;;;;;;;5.25;0.88;;;18.10;99.90;;;;;;5089704;28;20032;-64
2023/09/23 12:46:06;;;;;;;6.65;1.23;;;18.30;99.90;;;;;;5088859;28;20036;-64